Latest Weather Observations for Bradshaw

IDD60801

Issued at 9:05 pm CST Saturday 20 September 2014 (issued every 30 minutes, with the page automatically refreshed every 10 minutes)

About weather observations | Map of weather stations | Latest weather observations for NT | Other Formats
Station Details ID: 014954 Name: BRADSHAW Lat: -14.94 Lon: 130.81 Height: 75.0 m
Data from the previous 72 hours. | See also: Recent months at Bradshaw
Date/Time
CST
Temp
°C
App
Temp
°C
Dew
Point
Rel
Hum
%
Delta-T
°C
Wind Press
QNH
hPa
Press
MSL
hPa
Rain
since 9 am
mm
Dir
 
Spd
km/h
Gust
km/h
Spd
kts
Gust
kts
20/09:00pm 27.7 24.5 0.5 17 12.9 ENE 7 9 4 5 1012.8 1012.3 0.0
20/08:30pm 28.9 25.2 -0.3 15 13.8 ENE 9 11 5 6 1012.6 - 0.0
20/08:00pm 28.1 26.1 -0.1 16 13.3 CALM 0 6 0 3 1012.4 - 0.0
20/07:30pm 33.1 29.4 -2.6 10 16.7 E 7 11 4 6 1012.0 - 0.0
20/07:00pm 34.3 30.2 -3.1 9 17.5 E 9 11 5 6 1011.4 - 0.0
20/06:30pm 36.1 31.2 -3.3 8 18.6 E 13 19 7 10 1011.0 - 0.0
20/06:00pm 37.2 32.8 -2.5 8 19.2 E 11 20 6 11 1010.7 1010.2 0.0
20/05:30pm 38.0 32.1 -1.9 8 19.5 ESE 19 28 10 15 1010.5 - 0.0
20/05:00pm 38.4 32.6 -1.6 8 19.7 E 19 28 10 15 1010.6 - 0.0
20/04:30pm 39.3 33.0 -1.0 8 20.2 E 22 28 12 15 1010.6 - 0.0
20/04:00pm 39.0 33.0 -1.2 8 20.0 E 20 35 11 19 1010.6 - 0.0
20/03:30pm 39.2 34.2 -1.1 8 20.1 E 15 26 8 14 1010.9 - 0.0
20/03:00pm 38.9 34.8 -3.1 7 20.3 ESE 9 30 5 16 1011.1 1010.6 0.0
20/02:30pm 38.8 33.8 -1.4 8 19.9 NNE 15 28 8 15 1011.5 - 0.0
20/02:00pm 38.9 32.2 -1.3 8 20.0 E 24 48 13 26 1012.0 - 0.0
20/01:30pm 38.1 32.5 -0.3 9 19.3 NE 19 32 10 17 1012.5 - 0.0
20/01:00pm 38.5 32.7 0.0 9 19.5 NE 20 35 11 19 1013.2 - 0.0
20/12:30pm 37.6 31.6 0.8 10 18.8 ENE 22 28 12 15 1013.9 - 0.0
20/12:00pm 37.1 32.4 3.0 12 17.9 NE 17 28 9 15 1014.9 1014.4 0.0
20/11:30am 35.5 33.0 6.7 17 15.9 NNE 9 17 5 9 1015.5 - 0.0
20/11:00am 34.4 30.8 6.7 18 15.2 NNW 15 24 8 13 1016.0 - 0.0
20/10:30am 34.1 31.7 8.7 21 14.4 NNW 11 20 6 11 1016.3 - 0.0
20/10:00am 32.9 30.9 10.3 25 13.0 WNW 11 17 6 9 1016.6 - 0.0
20/09:30am 30.5 29.8 11.5 31 11.1 N 6 15 3 8 1016.8 - 0.0
20/09:00am 28.9 29.2 12.3 36 9.7 N 2 7 1 4 1016.9 1016.5 0.0
20/08:30am 27.3 27.1 12.9 41 8.5 N 6 11 3 6 1016.8 - 0.0
20/08:00am 25.9 25.3 13.4 46 7.4 NNE 9 11 5 6 1016.5 - 0.0
20/07:30am 23.7 24.6 13.0 51 6.2 CALM 0 0 0 0 1016.2 - 0.0
20/07:00am 20.4 20.8 11.3 56 5.0 CALM 0 0 0 0 1015.7 - 0.0
20/06:30am 20.2 19.5 10.0 52 5.5 NNE 4 7 2 4 1015.3 - 0.0
20/06:00am 20.1 18.1 8.8 48 5.9 N 9 11 5 6 1015.0 1014.6 0.0
20/05:30am 21.3 19.2 9.9 48 6.2 NE 11 13 6 7 1014.8 - 0.0
20/05:00am 21.1 19.1 6.2 38 7.5 E 6 7 3 4 1014.6 - 0.0
20/04:30am 22.5 20.6 6.7 36 8.1 NE 6 13 3 7 1014.3 - 0.0
20/04:00am 23.4 20.5 6.7 34 8.6 E 11 17 6 9 1014.2 - 0.0
20/03:30am 23.0 19.9 3.5 28 9.5 S 9 15 5 8 1014.1 - 0.0
20/03:00am 27.0 22.4 3.5 22 11.7 N 17 24 9 13 1013.9 1013.4 0.0
20/02:30am 25.5 22.8 3.5 24 10.9 NNE 7 9 4 5 1013.8 - 0.0
20/02:00am 25.2 22.5 2.6 23 11.0 SW 6 9 3 5 1013.8 - 0.0
20/01:30am 29.2 24.2 -1.0 14 14.1 N 15 20 8 11 1014.0 - 0.0
20/01:00am 29.2 24.4 -0.1 15 13.9 N 15 20 8 11 1014.4 - 0.0
20/12:30am 25.1 22.5 -1.6 17 12.0 NE 2 7 1 4 1014.5 - 0.0
20/12:00am 26.7 23.2 -1.2 16 12.8 E 7 9 4 5 1014.6 1014.1 0.0
 
Date/Time
CST
Temp
°C
App
Temp
°C
Dew
Point
Rel
Hum
%
Delta-T
°C
Wind Press
QNH
hPa
Press
MSL
hPa
Rain
since 9 am
mm
Dir
 
Spd
km/h
Gust
km/h
Spd
kts
Gust
kts
19/11:30pm 26.7 22.6 -0.3 17 12.6 N 11 11 6 6 1014.4 - 0.0
19/11:00pm 24.3 21.1 0.6 21 11.0 NNE 7 11 4 6 1014.2 - 0.0
19/10:30pm 23.2 19.9 0.3 22 10.5 NNE 7 7 4 4 1014.1 - 0.0
19/10:00pm 24.8 21.3 -1.1 18 11.7 ENE 7 9 4 5 1014.0 - 0.0
19/09:30pm 24.6 21.3 -1.3 18 11.6 NE 6 7 3 4 1013.8 - 0.0
19/09:00pm 28.1 24.5 -1.9 14 13.7 ENE 7 9 4 5 1013.6 1013.1 0.0
19/08:30pm 30.5 26.2 -4.5 10 15.6 E 9 11 5 6 1013.4 - 0.0
19/08:00pm 31.8 27.1 -4.9 9 16.4 E 11 11 6 6 1013.1 - 0.0
19/07:30pm 32.0 27.7 -4.8 9 16.5 E 9 11 5 6 1012.6 - 0.0
19/07:00pm 33.5 29.2 -5.2 8 17.4 E 9 15 5 8 1012.1 - 0.0
19/06:30pm 35.6 30.1 -5.5 7 18.7 E 15 19 8 10 1011.8 - 0.0
19/06:00pm 37.1 31.3 -4.4 7 19.4 E 17 24 9 13 1011.3 1010.8 0.0
19/05:30pm 37.6 31.5 -4.0 7 19.7 E 19 28 10 15 1011.2 - 0.0
19/05:00pm 38.1 32.0 -3.7 7 19.9 E 19 22 10 12 1011.1 - 0.0
19/04:30pm 38.7 31.7 -3.2 7 20.2 ESE 24 33 13 18 1010.9 - 0.0
19/04:00pm 38.9 32.3 -3.1 7 20.3 E 22 41 12 22 1011.1 - 0.0
19/03:30pm 39.1 32.9 -2.9 7 20.4 ESE 20 35 11 19 1011.3 - 0.0
19/03:00pm 38.9 32.9 -3.1 7 20.3 E 19 32 10 17 1011.6 1011.1 0.0
19/02:30pm 38.6 32.0 -3.3 7 20.2 E 22 33 12 18 1012.1 - 0.0
19/02:00pm 38.5 32.2 -5.4 6 20.4 ESE 19 35 10 19 1012.7 - 0.0
19/01:30pm 38.1 32.0 -3.7 7 19.9 ENE 19 39 10 21 1013.3 - 0.0
19/01:00pm 37.8 32.3 -2.1 8 19.5 NE 17 28 9 15 1013.8 - 0.0
19/12:30pm 37.3 32.7 -0.9 9 18.9 SE 13 26 7 14 1014.5 - 0.0
19/12:00pm 36.7 31.0 2.7 12 17.7 NE 22 30 12 16 1015.2 1014.8 0.0
19/11:30am 36.2 32.7 5.5 15 16.7 N 13 20 7 11 1015.9 - 0.0
19/11:00am 35.1 32.0 7.2 18 15.5 NNE 13 19 7 10 1016.5 - 0.0
19/10:30am 34.0 31.2 8.6 21 14.4 N 13 22 7 12 1017.0 - 0.0
19/10:00am 32.1 31.2 13.8 33 11.1 NNW 11 19 6 10 1017.3 - 0.0
19/09:30am 30.8 29.7 14.4 36 10.0 NNW 13 19 7 10 1017.5 - 0.0
19/09:00am 29.1 29.2 15.6 44 8.3 NNW 9 17 5 9 1017.6 1017.2 0.0
19/08:30am 27.9 28.8 16.5 50 7.1 E 7 15 4 8 1017.5 - 0.0
19/08:00am 25.9 26.4 15.6 53 6.3 NNE 7 15 4 8 1017.3 - 0.0
19/07:30am 23.7 25.5 15.5 60 4.9 CALM 0 6 0 3 1016.9 - 0.0
19/07:00am 20.9 21.6 13.4 62 4.3 NNE 2 7 1 4 1016.6 - 0.0
19/06:30am 21.4 21.8 13.6 61 4.5 S 4 9 2 5 1016.2 - 0.0
19/06:00am 22.4 21.2 12.9 55 5.4 ENE 11 13 6 7 1015.7 1015.3 0.0
19/05:30am 22.7 21.7 11.1 48 6.5 ENE 7 11 4 6 1015.3 - 0.0
19/05:00am 23.0 21.7 9.8 43 7.2 E 7 13 4 7 1014.7 - 0.0
19/04:30am 23.9 22.5 8.7 38 8.2 S 6 9 3 5 1014.3 - 0.0
19/04:00am 23.1 21.5 4.6 30 9.2 ENE 2 7 1 4 1014.2 - 0.0
19/03:30am 24.3 21.4 4.6 28 9.9 ESE 9 15 5 8 1014.4 - 0.0
19/03:00am 24.1 22.1 7.3 34 8.8 E 7 9 4 5 1014.4 1013.9 0.0
19/02:30am 24.8 23.9 10.7 41 7.9 SE 6 9 3 5 1014.5 - 0.0
19/02:00am 23.6 22.4 9.6 41 7.6 ESE 6 7 3 4 1014.6 - 0.0
19/01:30am 23.1 21.4 7.6 37 8.1 NNE 6 11 3 6 1014.9 - 0.0
19/01:00am 25.0 23.5 6.7 31 9.5 NNW 4 17 2 9 1015.0 - 0.0
19/12:30am 24.3 22.0 0.6 21 11.0 N 2 13 1 7 1014.9 - 0.0
19/12:00am 25.6 22.6 1.0 20 11.6 NW 6 11 3 6 1014.8 1014.3 0.0
 
Date/Time
CST
Temp
°C
App
Temp
°C
Dew
Point
Rel
Hum
%
Delta-T
°C
Wind Press
QNH
hPa
Press
MSL
hPa
Rain
since 9 am
mm
Dir
 
Spd
km/h
Gust
km/h
Spd
kts
Gust
kts
18/11:30pm 24.9 21.6 2.4 23 10.9 NNW 9 11 5 6 1015.0 - 0.0
18/11:00pm 24.3 21.4 2.5 24 10.5 N 7 13 4 7 1014.9 - 0.0
18/10:30pm 23.6 20.7 2.4 25 10.1 N 7 11 4 6 1015.0 - 0.0
18/10:00pm 24.2 22.1 1.8 23 10.6 N 2 9 1 5 1014.9 - 0.0
18/09:30pm 27.1 23.9 0.8 18 12.5 ENE 7 9 4 5 1014.7 - 0.0
18/09:00pm 28.7 25.1 0.4 16 13.5 E 9 11 5 6 1014.5 1014.0 0.0
18/08:30pm 28.9 25.2 -0.3 15 13.8 E 9 11 5 6 1014.2 - 0.0
18/08:00pm 30.2 26.7 -1.2 13 14.8 E 7 9 4 5 1013.8 - 0.0
18/07:30pm 32.0 28.0 -2.1 11 16.0 ENE 9 13 5 7 1013.4 - 0.0
18/07:00pm 33.3 28.5 -2.4 10 16.8 ENE 13 17 7 9 1012.8 - 0.0
18/06:30pm 35.1 29.5 -2.5 9 17.9 ENE 17 24 9 13 1012.4 - 0.0
18/06:00pm 36.1 30.8 -3.3 8 18.7 ENE 15 24 8 13 1012.1 1011.6 0.0
18/05:30pm 36.8 31.6 -2.8 8 19.0 E 15 22 8 12 1011.8 - 0.0
18/05:00pm 37.2 31.5 -0.9 9 18.9 E 19 28 10 15 1011.9 - 0.0
18/04:30pm 37.3 32.7 -0.9 9 18.9 E 13 20 7 11 1011.8 - 0.0
18/04:00pm 37.5 32.2 -0.7 9 19.0 NE 17 32 9 17 1011.8 - 0.0
18/03:30pm 36.0 29.4 -0.4 10 18.0 SE 24 32 13 17 1012.2 - 0.0
18/03:00pm 37.9 32.8 1.0 10 18.9 NNE 17 30 9 16 1012.6 1012.1 0.0
18/02:30pm 38.1 32.1 1.2 10 19.0 E 22 30 12 16 1013.2 - 0.0
18/02:00pm 37.4 31.3 0.7 10 18.7 ESE 22 33 12 18 1013.7 - 0.0
18/01:30pm 37.6 32.8 4.5 13 17.9 ENE 19 33 10 18 1014.5 - 0.0
18/01:00pm 37.2 33.3 7.2 16 16.8 ENE 17 28 9 15 1015.1 - 0.0
18/12:30pm 35.2 34.2 10.9 23 14.3 ENE 7 17 4 9 1015.9 - 0.0
18/12:00pm 35.2 34.2 12.2 25 13.8 E 9 20 5 11 1016.7 1016.3 0.0
18/11:30am 33.8 33.3 14.8 32 11.8 NW 11 19 6 10 1017.5 - 0.0
18/11:00am 33.0 33.8 16.4 37 10.5 S 7 15 4 8 1017.9 - 0.0
18/10:30am 32.5 33.1 16.8 39 10.0 WNW 9 20 5 11 1018.3 - 0.0
18/10:00am 31.1 32.4 18.5 47 8.2 NNW 9 15 5 8 1018.7 - 0.0
18/09:30am 29.7 30.0 18.8 52 7.1 NNW 15 20 8 11 1018.6 - 0.0
18/09:00am 28.6 29.5 19.2 56 6.1 NNW 13 20 7 11 1018.5 1018.1 0.0
18/08:30am 27.1 29.0 18.9 61 5.3 N 7 11 4 6 1018.2 - 0.0
18/08:00am 25.6 27.1 18.8 66 4.3 NNE 9 13 5 7 1017.8 - 0.0
18/07:30am 24.2 26.5 18.6 71 3.6 N 4 9 2 5 1017.3 - 0.0
18/07:00am 22.9 25.0 18.2 75 3.0 N 4 7 2 4 1016.9 - 0.0
18/06:30am 22.7 24.8 18.0 75 2.9 NE 4 13 2 7 1016.4 - 0.0
18/06:00am 23.3 24.9 18.2 73 3.2 NE 7 9 4 5 1016.1 1015.7 0.0
18/05:30am 22.8 23.1 17.0 70 3.6 NNE 11 13 6 7 1015.9 - 0.0
18/05:00am 23.5 23.6 16.5 65 4.3 NNE 11 15 6 8 1015.6 - 0.0
18/04:30am 23.1 22.4 15.4 62 4.6 N 13 15 7 8 1015.4 - 0.0
18/04:00am 24.1 23.9 13.6 52 6.1 NE 7 11 4 6 1015.0 - 0.0
18/03:30am 24.8 22.8 12.7 47 7.0 E 15 24 8 13 1014.3 - 0.0
18/03:00am 24.0 24.3 14.4 55 5.7 S 6 9 3 5 1013.9 1013.4 0.0
18/02:30am 25.2 24.3 14.9 52 6.2 NNE 13 22 7 12 1014.1 - 0.0
18/02:00am 23.1 22.7 8.4 39 7.8 CALM 0 0 0 0 1013.7 - 0.0
18/01:30am 24.5 23.7 11.1 43 7.5 N 6 11 3 6 1014.0 - 0.0
18/01:00am 24.8 23.7 10.7 41 7.9 N 7 13 4 7 1014.2 - 0.0
18/12:30am 24.1 22.9 8.1 36 8.5 N 4 9 2 5 1014.3 - 0.0
18/12:00am 25.7 24.0 11.1 40 8.3 NNW 11 15 6 8 1014.5 1014.0 0.0
 
Date/Time
CST
Temp
°C
App
Temp
°C
Dew
Point
Rel
Hum
%
Delta-T
°C
Wind Press
QNH
hPa
Press
MSL
hPa
Rain
since 9 am
mm
Dir
 
Spd
km/h
Gust
km/h
Spd
kts
Gust
kts
17/11:30pm 25.5 23.7 7.1 31 9.7 SE 6 9 3 5 1014.6 - 0.0
17/11:00pm 27.9 25.7 7.7 28 10.9 NW 9 11 5 6 1014.3 - 0.0
17/10:30pm 25.9 25.3 7.5 31 9.8 CALM 0 9 0 5 1014.3 - 0.0
17/10:00pm 25.8 25.3 7.9 32 9.6 CALM 0 0 0 0 1014.2 - 0.0
17/09:30pm 26.8 26.1 6.8 28 10.6 CALM 0 0 0 0 1014.0 - 0.0

Other Formats:

Comma delimited format used in spreadsheet applications
http://www.bom.gov.au/fwo/IDD60801/IDD60801.94130.axf

JavaScript Object Notation format (JSON) in row-major order
http://www.bom.gov.au/fwo/IDD60801/IDD60801.94130.json